Time;durP1;ratioP1;P1;durP2;ratioP2;P2;SDS_P1;SDS_P2;PMS_P1;PMS_P2;Temp;Humidity;BMP_temperature;BMP_pressure;BME280_temperature;BME280_humidity;BME280_pressure;Samples;Min_cycle;Max_cycle;Signal;HPM_P1;HPM_P2
2023/09/18 00:01:48;;;;;;;12.93;7.90;;;;;;;-140.66;100.00;55571.53;5073772;28;20327;-74
2023/09/18 00:05:32;;;;;;;11.85;8.00;;;;;;;-140.66;100.00;55571.53;5072932;28;20024;-74
2023/09/18 00:09:17;;;;;;;14.15;6.95;;;;;;;-140.66;100.00;55571.53;5059970;28;20421;-73
2023/09/18 00:13:01;;;;;;;13.43;6.60;;;;;;;-140.66;100.00;55571.53;5073575;28;20117;-74
2023/09/18 00:16:46;;;;;;;10.90;6.70;;;;;;;-140.66;100.00;55571.53;5073931;28;20347;-73
2023/09/18 00:20:30;;;;;;;11.95;6.40;;;;;;;-140.66;100.00;55571.53;5063402;28;20021;-73
2023/09/18 00:24:14;;;;;;;9.27;5.78;;;;;;;-140.66;100.00;55571.53;5077846;28;20052;-72
2023/09/18 00:27:59;;;;;;;9.02;5.88;;;;;;;-140.66;100.00;55571.53;5077540;28;20033;-73
2023/09/18 00:31:46;;;;;;;9.27;5.72;;;;;;;-140.66;100.00;55571.53;5077432;28;20086;-74
2023/09/18 00:35:31;;;;;;;10.77;5.55;;;;;;;-140.66;100.00;55571.53;5078126;28;20116;-73
2023/09/18 00:39:15;;;;;;;11.77;5.65;;;;;;;-140.66;100.00;55571.53;5077107;28;20059;-70
2023/09/18 00:42:59;;;;;;;10.43;5.55;;;;;;;-140.66;100.00;55571.53;5076883;28;20025;-73
2023/09/18 00:46:45;;;;;;;7.18;4.97;;;;;;;-140.66;100.00;55571.53;5062568;28;20358;-74
2023/09/18 00:50:30;;;;;;;8.95;5.55;;;;;;;-140.66;100.00;55571.53;5076924;28;20031;-73
2023/09/18 00:54:22;;;;;;;8.52;5.10;;;;;;;-140.66;100.00;55571.53;5077067;28;20332;-74
2023/09/18 00:58:07;;;;;;;8.27;5.20;;;;;;;-140.66;100.00;55571.53;5076897;28;20038;-73
2023/09/18 01:01:52;;;;;;;9.90;5.50;;;;;;;-140.66;100.00;55571.53;5063118;28;20059;-74
2023/09/18 01:05:36;;;;;;;6.97;5.20;;;;;;;-140.66;100.00;55571.53;5076066;28;20118;-74
2023/09/18 01:09:21;;;;;;;7.15;5.43;;;;;;;-140.66;100.00;55571.53;5076554;28;20055;-74
2023/09/18 01:13:13;;;;;;;11.05;5.65;;;;;;;-140.66;100.00;55571.53;5076059;28;20082;-73
2023/09/18 01:17:03;;;;;;;9.32;5.15;;;;;;;-140.66;100.00;55571.53;5077080;28;20036;-74
2023/09/18 01:19:51;;;;;;;7.18;5.15;;;;;;;-140.66;100.00;55571.53;5077263;28;20390;-74
2023/09/18 01:22:41;;;;;;;7.70;5.55;;;;;;;-140.66;100.00;55571.53;5062111;28;20021;-74
2023/09/18 01:25:43;;;;;;;6.75;5.13;;;;;;;-140.66;100.00;55571.53;5076622;28;20040;-74
2023/09/18 01:28:29;;;;;;;8.70;5.70;;;;;;;-140.66;100.00;55571.53;5075681;28;20024;-74
2023/09/18 01:32:14;;;;;;;8.95;5.30;;;;;;;-140.66;100.00;55571.53;5077000;28;20501;-74
2023/09/18 01:36:00;;;;;;;9.68;5.13;;;;;;;-140.66;100.00;55571.53;5076278;28;20115;-74
2023/09/18 01:39:46;;;;;;;7.28;5.50;;;;;;;-140.66;100.00;55571.53;5075353;28;20024;-74
2023/09/18 01:43:30;;;;;;;7.28;4.85;;;;;;;-140.66;100.00;55571.53;5076277;28;20016;-74
2023/09/18 01:47:19;;;;;;;9.65;5.80;;;;;;;-140.66;100.00;55571.53;5061564;28;20233;-74
2023/09/18 01:51:03;;;;;;;7.95;5.18;;;;;;;-140.66;100.00;55571.53;5076147;28;20033;-74
2023/09/18 01:54:47;;;;;;;8.05;5.30;;;;;;;-140.66;100.00;55571.53;5061646;28;20044;-74
2023/09/18 01:58:32;;;;;;;7.65;5.50;;;;;;;-140.66;100.00;55571.53;5075512;28;20047;-74
2023/09/18 02:02:16;;;;;;;8.75;6.00;;;;;;;-140.66;100.00;55571.53;5061715;28;20021;-74
2023/09/18 02:06:00;;;;;;;8.45;5.50;;;;;;;-140.66;100.00;55571.53;5060380;28;20106;-73
2023/09/18 02:09:45;;;;;;;11.32;5.63;;;;;;;-140.66;100.00;55571.53;5075675;28;20055;-74
2023/09/18 02:13:29;;;;;;;7.75;5.78;;;;;;;-140.66;100.00;55571.53;5074871;28;20117;-75
2023/09/18 02:17:13;;;;;;;9.60;5.63;;;;;;;-140.66;100.00;55571.53;5075901;28;20035;-74
2023/09/18 02:20:57;;;;;;;9.10;5.80;;;;;;;-140.66;100.00;55571.53;5076037;28;20382;-74
2023/09/18 02:24:41;;;;;;;12.10;6.38;;;;;;;-140.66;100.00;55571.53;5075370;28;20029;-74
2023/09/18 02:28:26;;;;;;;11.57;6.03;;;;;;;-140.66;100.00;55571.53;5074892;28;20071;-74
2023/09/18 02:32:10;;;;;;;11.73;6.38;;;;;;;-140.66;100.00;55571.53;5061980;28;20104;-73
2023/09/18 02:35:54;;;;;;;9.02;5.95;;;;;;;-140.66;100.00;55571.53;5074413;28;20174;-74
2023/09/18 02:39:38;;;;;;;7.95;5.55;;;;;;;-140.66;100.00;55571.53;5074869;28;20399;-74
2023/09/18 02:43:23;;;;;;;7.35;5.43;;;;;;;-140.66;100.00;55571.53;5082782;28;20009;-72
2023/09/18 02:47:07;;;;;;;9.77;5.43;;;;;;;-140.66;100.00;55571.53;5086116;28;20120;-73
2023/09/18 02:50:51;;;;;;;6.13;5.28;;;;;;;-140.66;100.00;55571.53;5079977;28;20085;-72
2023/09/18 02:54:36;;;;;;;8.90;6.00;;;;;;;-140.66;100.00;55571.53;5094632;28;20033;-74
2023/09/18 02:58:20;;;;;;;9.90;5.97;;;;;;;-140.66;100.00;55571.53;5093606;28;20020;-73
2023/09/18 03:02:05;;;;;;;6.97;5.68;;;;;;;-140.66;100.00;55571.53;5091722;28;20021;-74
2023/09/18 03:05:49;;;;;;;8.07;6.13;;;;;;;-140.66;100.00;55571.53;5061195;28;20143;-73
2023/09/18 03:09:35;;;;;;;11.50;6.45;;;;;;;-140.66;100.00;55571.53;5075762;28;20062;-74
2023/09/18 03:13:19;;;;;;;8.75;6.40;;;;;;;-140.66;100.00;55571.53;5061733;28;20064;-73
2023/09/18 03:17:03;;;;;;;11.38;6.20;;;;;;;-140.66;100.00;55571.53;5061636;28;20033;-74
2023/09/18 03:20:48;;;;;;;12.55;6.25;;;;;;;-140.66;100.00;55571.53;5077254;28;20025;-75
2023/09/18 03:24:32;;;;;;;10.32;6.45;;;;;;;-140.66;100.00;55571.53;5063162;28;20037;-76
2023/09/18 03:28:16;;;;;;;10.35;6.20;;;;;;;-140.66;100.00;55571.53;5081864;28;20024;-73
2023/09/18 03:32:01;;;;;;;9.20;6.10;;;;;;;-140.66;100.00;55571.53;5092771;28;20084;-74
2023/09/18 03:35:49;;;;;;;10.20;6.13;;;;;;;-140.66;100.00;55571.53;5094258;28;20043;-74
2023/09/18 03:39:35;;;;;;;12.70;6.93;;;;;;;-140.66;100.00;55571.53;5095025;28;20011;-72
2023/09/18 03:43:19;;;;;;;12.27;6.90;;;;;;;-140.66;100.00;55571.53;5092740;28;20016;-74
2023/09/18 03:47:04;;;;;;;13.23;6.95;;;;;;;-140.66;100.00;55571.53;5087602;28;20031;-74
2023/09/18 03:50:49;;;;;;;16.92;6.78;;;;;;;-140.66;100.00;55571.53;5092799;28;20062;-74
2023/09/18 03:54:34;;;;;;;11.30;6.80;;;;;;;-140.66;100.00;55571.53;5094065;28;20028;-74
2023/09/18 03:58:18;;;;;;;13.52;7.22;;;;;;;-140.66;100.00;55571.53;5090899;28;20029;-75
2023/09/18 04:02:03;;;;;;;15.50;7.25;;;;;;;-140.66;100.00;55571.53;5075456;28;20374;-75
2023/09/18 04:05:47;;;;;;;13.05;7.18;;;;;;;-140.66;100.00;55571.53;5074108;28;20088;-72
2023/09/18 04:09:32;;;;;;;20.83;8.30;;;;;;;-140.66;100.00;55571.53;5074141;28;20371;-74
2023/09/18 04:13:16;;;;;;;18.17;8.85;;;;;;;-140.66;100.00;55571.53;5078270;28;20036;-73
2023/09/18 04:17:00;;;;;;;13.50;8.70;;;;;;;-140.66;100.00;55571.53;5074226;28;20421;-71
2023/09/18 04:20:45;;;;;;;18.88;10.60;;;;;;;-140.66;100.00;55571.53;5073776;28;20129;-74
2023/09/18 04:24:30;;;;;;;19.75;10.77;;;;;;;-140.66;100.00;55571.53;5075771;28;20029;-73
2023/09/18 04:28:15;;;;;;;18.00;11.25;;;;;;;-140.66;100.00;55571.53;5074547;28;20029;-73
2023/09/18 04:32:00;;;;;;;16.98;11.27;;;;;;;-140.66;100.00;55571.53;5060297;28;20028;-73
2023/09/18 04:35:44;;;;;;;20.77;11.02;;;;;;;-140.66;100.00;55571.53;5074493;28;20036;-73
2023/09/18 04:39:30;;;;;;;20.67;10.27;;;;;;;-140.66;100.00;55571.53;5074323;28;20374;-76
2023/09/18 04:43:14;;;;;;;20.42;8.93;;;;;;;-140.66;100.00;55571.53;5074042;28;20354;-74
2023/09/18 04:46:59;;;;;;;13.15;8.45;;;;;;;-140.66;100.00;55571.53;5074079;28;20363;-74
2023/09/18 04:50:43;;;;;;;17.42;7.95;;;;;;;-140.66;100.00;55571.53;5059443;28;20509;-74
2023/09/18 04:54:28;;;;;;;16.35;7.90;;;;;;;-140.66;100.00;55571.53;5073902;28;20399;-73
2023/09/18 04:58:12;;;;;;;12.38;8.23;;;;;;;-140.66;100.00;55571.53;5073586;28;20363;-74
2023/09/18 05:01:57;;;;;;;15.93;8.20;;;;;;;-140.66;100.00;55571.53;5072800;28;20021;-74
2023/09/18 05:05:41;;;;;;;15.15;9.43;;;;;;;-140.66;100.00;55571.53;5076192;28;20127;-74
2023/09/18 05:09:26;;;;;;;15.13;10.32;;;;;;;-140.66;100.00;55571.53;5077209;28;20044;-73
2023/09/18 05:13:10;;;;;;;19.83;10.90;;;;;;;-140.66;100.00;55571.53;5077916;28;20024;-74
2023/09/18 05:16:43;;;;;;;16.58;11.00;;;;;;;-140.66;100.00;55571.53;5076978;28;20383;-75
2023/09/18 05:20:28;;;;;;;16.63;10.45;;;;;;;-140.66;100.00;55571.53;5063388;28;20374;-72
2023/09/18 05:24:12;;;;;;;18.70;11.50;;;;;;;-140.66;100.00;55571.53;5077096;28;20446;-76
2023/09/18 05:27:57;;;;;;;19.27;10.05;;;;;;;-140.66;100.00;55571.53;5077317;28;20101;-73
2023/09/18 05:31:41;;;;;;;17.25;11.05;;;;;;;-140.66;100.00;55571.53;5062590;28;20024;-73
2023/09/18 12:33:03;;;;;;;7.47;5.40;;;;;;;;;;5103952;27;20492;-75
2023/09/18 12:35:49;;;;;;;6.38;5.40;;;;;;;;;;5120506;28;20087;-75
2023/09/18 12:38:36;;;;;;;8.57;5.70;;;;;;;;;;5132211;28;20371;-75
2023/09/18 12:41:23;;;;;;;7.10;5.55;;;;;;;;;;5131683;28;20088;-76
2023/09/18 12:44:10;;;;;;;6.63;5.63;;;;;;;;;;5132003;28;20391;-75
2023/09/18 12:46:55;;;;;;;8.60;5.80;;;;;;;;;;5132638;28;20020;-76
2023/09/18 12:49:41;;;;;;;8.77;5.63;;;;;;;;;;5117182;28;20031;-75
2023/09/18 12:52:28;;;;;;;8.30;6.00;;;;;;;;;;5123596;27;20023;-75
2023/09/18 12:55:24;;;;;;;8.40;5.90;;;;;;;;;;5136790;27;20027;-75
2023/09/18 12:58:10;;;;;;;8.10;5.93;;;;;;;;;;5150600;27;20087;-74
2023/09/18 13:00:56;;;;;;;7.22;5.78;;;;;;;;;;5151015;27;20010;-74
2023/09/18 13:03:43;;;;;;;10.02;5.70;;;;;;;;;;5136891;27;20074;-75
2023/09/18 13:06:28;;;;;;;8.15;5.60;;;;;;;;;;5150145;27;20019;-75
2023/09/18 13:09:19;;;;;;;8.80;5.68;;;;;;;;;;5130418;28;20360;-76
2023/09/18 13:12:05;;;;;;;8.35;5.70;;;;;;;;;;5150191;27;20360;-77
2023/09/18 13:15:08;;;;;;;9.25;5.10;;;;;;;;;;5136413;27;20034;-76
2023/09/18 13:17:54;;;;;;;7.38;5.00;;;;;;;;;;5137653;27;20037;-78
2023/09/18 13:20:43;;;;;;;7.43;5.55;;;;;;;;;;5151125;27;20030;-75
2023/09/18 13:23:29;;;;;;;7.07;5.03;;;;;;;;;;5150666;27;20348;-75
2023/09/18 13:26:15;;;;;;;7.30;5.25;;;;;;;;;;5151786;27;20015;-74
2023/09/18 13:29:00;;;;;;;8.02;5.35;;;;;;;;;;5132945;27;20068;-74
2023/09/18 13:31:46;;;;;;;7.32;5.38;;;;;;;;;;5113897;28;20047;-72
2023/09/18 13:34:32;;;;;;;7.70;5.40;;;;;;;;;;5101132;28;20142;-71
2023/09/18 13:37:20;;;;;;;8.65;5.63;;;;;;;;;;5116379;28;20020;-71
2023/09/18 13:40:09;;;;;;;7.13;5.80;;;;;;;;;;5115763;28;20040;-71
2023/09/18 13:42:54;;;;;;;9.25;5.80;;;;;;;;;;5116503;28;20020;-70
2023/09/18 13:45:41;;;;;;;9.70;5.57;;;;;;;;;;5116491;28;20012;-72
2023/09/18 13:48:27;;;;;;;10.43;5.72;;;;;;;;;;5115853;28;20423;-70
2023/09/18 13:51:13;;;;;;;6.13;5.53;;;;;;;;;;5101690;28;20024;-72
2023/09/18 13:53:59;;;;;;;6.60;5.65;;;;;;;;;;5101339;28;20023;-71
2023/09/18 13:56:45;;;;;;;10.15;6.20;;;;;;;;;;5116038;28;20059;-71
2023/09/18 13:59:30;;;;;;;6.65;5.80;;;;;;;;;;5116109;28;20015;-72
2023/09/18 14:02:16;;;;;;;6.85;5.90;;;;;;;;;;5100962;28;20023;-72
2023/09/18 14:05:03;;;;;;;10.80;6.35;;;;;;;;;;5115308;28;20016;-71
2023/09/18 14:07:49;;;;;;;11.07;6.55;;;;;;;;;;5116082;28;20031;-72
2023/09/18 14:10:34;;;;;;;10.20;6.07;;;;;;;;;;5115031;28;20042;-72
2023/09/18 14:13:20;;;;;;;7.35;6.05;;;;;;;;;;5115098;28;20028;-71
2023/09/18 14:16:06;;;;;;;8.75;6.20;;;;;;;;;;5115408;28;20077;-69
2023/09/18 14:18:53;;;;;;;8.52;5.65;;;;;;;;;;5101016;28;20023;-71
2023/09/18 14:21:39;;;;;;;12.85;5.70;;;;;;;;;;5100802;28;20015;-69
2023/09/18 14:24:25;;;;;;;8.30;5.80;;;;;;;;;;5100382;28;20486;-71
2023/09/18 14:27:12;;;;;;;9.20;6.25;;;;;;;;;;5109639;28;20028;-71
2023/09/18 14:29:58;;;;;;;9.63;6.20;;;;;;;;;;5095964;28;20012;-73
2023/09/18 14:32:43;;;;;;;8.70;6.03;;;;;;;;;;5102773;27;20056;-74
2023/09/18 14:35:29;;;;;;;6.63;5.68;;;;;;;;;;5104672;28;20028;-73
2023/09/18 14:38:15;;;;;;;8.93;6.40;;;;;;;;;;5110692;28;20020;-75
2023/09/18 14:41:02;;;;;;;10.82;5.78;;;;;;;;;;5101663;28;20027;-71
2023/09/18 14:43:48;;;;;;;7.55;5.80;;;;;;;;;;5101322;28;20364;-75
2023/09/18 14:46:34;;;;;;;8.50;5.75;;;;;;;;;;5116934;28;20433;-71
2023/09/18 14:49:20;;;;;;;9.82;5.72;;;;;;;;;;5116522;28;20107;-70
2023/09/18 14:52:06;;;;;;;9.45;6.28;;;;;;;;;;5115330;28;20024;-71
2023/09/18 14:54:52;;;;;;;8.98;5.85;;;;;;;;;;5116430;28;20035;-71
2023/09/18 14:57:37;;;;;;;11.52;6.20;;;;;;;;;;5114526;28;20035;-72
2023/09/18 15:00:24;;;;;;;13.70;6.97;;;;;;;;;;5113939;28;20019;-72
2023/09/18 15:03:09;;;;;;;9.93;6.22;;;;;;;;;;5114734;28;20437;-72
2023/09/18 15:05:55;;;;;;;10.82;6.20;;;;;;;;;;5115062;28;20497;-72
2023/09/18 15:08:41;;;;;;;12.35;6.30;;;;;;;;;;5115234;28;20047;-71
2023/09/18 15:11:26;;;;;;;10.45;6.43;;;;;;;;;;5109133;28;20030;-72
2023/09/18 15:14:12;;;;;;;8.68;6.53;;;;;;;;;;5115099;28;20038;-76
2023/09/18 15:16:58;;;;;;;9.73;6.55;;;;;;;;;;5104874;28;20019;-75
2023/09/18 15:19:44;;;;;;;11.32;6.60;;;;;;;;;;5092763;28;20108;-72
2023/09/18 15:22:30;;;;;;;10.50;6.90;;;;;;;;;;5112886;28;20404;-71
2023/09/18 15:25:16;;;;;;;9.07;6.50;;;;;;;;;;5116340;28;20089;-71
2023/09/18 15:28:01;;;;;;;11.07;6.43;;;;;;;;;;5096354;28;20024;-71
2023/09/18 15:30:47;;;;;;;12.70;6.68;;;;;;;;;;5096238;28;20071;-70
2023/09/18 15:33:33;;;;;;;11.90;6.18;;;;;;;;;;5099568;28;20053;-74
2023/09/18 15:36:19;;;;;;;7.82;6.40;;;;;;;;;;5086185;28;20423;-73
2023/09/18 15:39:04;;;;;;;12.25;6.35;;;;;;;;;;5099290;28;20024;-74
2023/09/18 15:41:50;;;;;;;10.05;6.32;;;;;;;;;;5113771;28;20026;-75
2023/09/18 15:44:36;;;;;;;9.25;6.13;;;;;;;;;;5100792;28;20314;-73
2023/09/18 15:47:22;;;;;;;10.32;6.50;;;;;;;;;;5113759;28;20019;-73
2023/09/18 15:50:08;;;;;;;10.13;6.35;;;;;;;;;;5105489;28;20026;-73
2023/09/18 15:52:54;;;;;;;9.75;5.55;;;;;;;;;;5078967;28;20039;-72
2023/09/18 15:55:40;;;;;;;8.80;5.75;;;;;;;;;;5092783;28;20051;-73
2023/09/18 15:58:26;;;;;;;8.45;6.25;;;;;;;;;;5100802;28;20100;-76
2023/09/18 16:01:13;;;;;;;12.32;6.88;;;;;;;;;;5114493;28;20089;-74
2023/09/18 16:03:58;;;;;;;10.55;6.55;;;;;;;;;;5100083;28;20019;-74
2023/09/18 16:06:46;;;;;;;8.20;6.55;;;;;;;;;;5113029;28;20077;-73
2023/09/18 16:09:32;;;;;;;8.63;6.07;;;;;;;;;;5113682;28;20035;-74
2023/09/18 16:12:17;;;;;;;10.25;6.50;;;;;;;;;;5114720;28;20057;-73
2023/09/18 16:15:04;;;;;;;8.25;6.13;;;;;;;;;;5113085;28;20020;-73
2023/09/18 16:17:50;;;;;;;14.95;6.97;;;;;;;;;;5100360;28;20024;-73
2023/09/18 16:20:35;;;;;;;9.30;6.38;;;;;;;;;;5114142;28;20119;-73
2023/09/18 16:23:21;;;;;;;10.98;6.57;;;;;;;;;;5114394;28;20015;-75
2023/09/18 16:26:07;;;;;;;9.93;6.93;;;;;;;;;;5111083;28;20023;-73
2023/09/18 16:28:53;;;;;;;11.20;6.90;;;;;;;;;;5107784;28;20047;-74
2023/09/18 16:31:38;;;;;;;12.18;7.32;;;;;;;;;;5088549;28;20131;-74
2023/09/18 16:34:24;;;;;;;12.85;7.05;;;;;;;;;;5093664;28;20020;-76
2023/09/18 16:37:10;;;;;;;11.65;6.28;;;;;;;;;;5093510;28;20024;-74
2023/09/18 16:39:55;;;;;;;7.38;6.25;;;;;;;;;;5094720;28;20039;-75
2023/09/18 16:42:44;;;;;;;10.40;6.53;;;;;;;;;;5085510;28;20024;-75
2023/09/18 16:45:29;;;;;;;11.07;6.32;;;;;;;;;;5094097;28;20027;-74
2023/09/18 16:48:15;;;;;;;13.43;6.85;;;;;;;;;;5092906;28;20022;-74
2023/09/18 16:51:01;;;;;;;8.57;6.15;;;;;;;;;;5094930;28;20043;-74
2023/09/18 16:53:48;;;;;;;14.13;7.45;;;;;;;;;;5098711;28;20027;-75
2023/09/18 16:56:35;;;;;;;9.77;6.95;;;;;;;;;;5096845;28;20024;-76
2023/09/18 16:59:22;;;;;;;15.85;6.88;;;;;;;;;;5096856;28;20151;-75
2023/09/18 17:02:08;;;;;;;11.00;6.65;;;;;;;;;;5088608;28;20063;-75
2023/09/18 17:04:53;;;;;;;14.70;7.07;;;;;;;;;;5093536;28;20038;-77
2023/09/18 17:07:39;;;;;;;13.43;7.30;;;;;;;;;;5094914;28;20075;-76
2023/09/18 17:10:25;;;;;;;11.02;6.78;;;;;;;;;;5097631;28;20024;-73
2023/09/18 17:13:11;;;;;;;11.13;6.45;;;;;;;;;;5096695;28;20046;-74
2023/09/18 17:15:57;;;;;;;12.45;6.88;;;;;;;;;;5096849;28;20016;-72
2023/09/18 17:18:44;;;;;;;14.80;7.00;;;;;;;;;;5097228;28;20377;-75
2023/09/18 17:21:30;;;;;;;11.13;7.03;;;;;;;;;;5078194;28;20039;-73
2023/09/18 17:24:15;;;;;;;9.82;6.57;;;;;;;;;;5077478;28;20024;-74
2023/09/18 17:27:03;;;;;;;12.60;6.15;;;;;;;;;;5087964;28;20369;-72
2023/09/18 17:29:49;;;;;;;12.63;6.50;;;;;;;;;;5079413;28;20063;-73
2023/09/18 17:32:36;;;;;;;15.77;6.30;;;;;;;;;;5088225;28;20389;-73
2023/09/18 17:35:22;;;;;;;9.18;6.45;;;;;;;;;;5082788;28;20052;-74
2023/09/18 17:38:07;;;;;;;10.07;5.85;;;;;;;;;;5093158;28;20024;-77
2023/09/18 17:40:53;;;;;;;17.88;6.57;;;;;;;;;;5093224;28;20082;-74
2023/09/18 17:43:39;;;;;;;22.67;7.28;;;;;;;;;;5095416;28;20027;-74
2023/09/18 17:46:25;;;;;;;15.60;6.63;;;;;;;;;;5095752;28;20024;-73
2023/09/18 17:49:12;;;;;;;14.13;6.63;;;;;;;;;;5089726;28;20020;-73
2023/09/18 17:51:58;;;;;;;12.40;7.47;;;;;;;;;;5095172;28;20090;-74
2023/09/18 17:54:43;;;;;;;15.18;7.65;;;;;;;;;;5096186;28;20024;-73
2023/09/18 17:57:29;;;;;;;11.15;6.68;;;;;;;;;;5095013;28;20024;-73
2023/09/18 18:00:15;;;;;;;15.70;7.03;;;;;;;;;;5095392;28;20035;-74
2023/09/18 18:03:01;;;;;;;15.63;7.00;;;;;;;;;;5095744;28;20073;-74
2023/09/18 18:05:49;;;;;;;12.10;6.70;;;;;;;;;;5094574;28;20023;-74
2023/09/18 18:08:34;;;;;;;12.73;7.13;;;;;;;;;;5063718;28;20032;-74
2023/09/18 18:11:23;;;;;;;13.93;7.15;;;;;;;;;;5060040;28;20028;-73
2023/09/18 18:14:08;;;;;;;13.65;7.38;;;;;;;;;;5093186;28;20012;-73
2023/09/18 18:16:54;;;;;;;17.83;7.03;;;;;;;;;;5096309;28;20020;-76
2023/09/18 18:19:40;;;;;;;13.23;8.30;;;;;;;;;;5095320;28;20118;-74
2023/09/18 18:22:25;;;;;;;10.90;6.20;;;;;;;;;;5095939;28;20056;-74
2023/09/18 18:25:12;;;;;;;12.05;6.20;;;;;;;;;;5094792;28;20020;-72
2023/09/18 18:27:58;;;;;;;12.00;6.88;;;;;;;;;;5089572;28;20023;-71
2023/09/18 18:30:44;;;;;;;13.93;8.25;;;;;;;;;;5089802;28;20027;-73
2023/09/18 18:33:29;;;;;;;10.85;6.20;;;;;;;;;;5094827;28;20356;-72
2023/09/18 18:36:15;;;;;;;7.78;5.55;;;;;;;;;;5116596;28;20024;-73
2023/09/18 18:39:01;;;;;;;7.53;5.85;;;;;;;;;;5102349;28;20078;-73
2023/09/18 18:41:47;;;;;;;7.72;5.68;;;;;;;;;;5095015;28;20038;-72
2023/09/18 18:44:32;;;;;;;8.20;5.97;;;;;;;;;;5094974;28;20022;-72
2023/09/18 18:47:18;;;;;;;10.35;5.90;;;;;;;;;;5095565;28;20035;-76
2023/09/18 18:50:04;;;;;;;7.65;5.70;;;;;;;;;;5100213;28;20026;-74
2023/09/18 18:52:50;;;;;;;8.18;5.95;;;;;;;;;;5115054;28;20019;-73
2023/09/18 18:55:36;;;;;;;12.13;6.00;;;;;;;;;;5115367;28;20106;-73
2023/09/18 18:58:22;;;;;;;11.00;5.40;;;;;;;;;;5116881;28;20027;-71
2023/09/18 19:01:08;;;;;;;6.50;5.68;;;;;;;;;;5115534;28;20024;-72
2023/09/18 19:03:55;;;;;;;7.68;5.80;;;;;;;;;;5115545;28;20050;-75
2023/09/18 19:06:40;;;;;;;12.25;5.40;;;;;;;;;;5116757;28;20023;-72
2023/09/18 19:09:26;;;;;;;7.40;5.30;;;;;;;;;;5115921;28;20023;-74
2023/09/18 19:12:12;;;;;;;7.20;5.55;;;;;;;;;;5115849;28;20023;-72
2023/09/18 19:14:58;;;;;;;9.55;5.22;;;;;;;;;;5114931;28;20023;-70
2023/09/18 19:17:44;;;;;;;5.95;5.10;;;;;;;;;;5111090;28;20034;-71
2023/09/18 19:20:31;;;;;;;9.98;5.20;;;;;;;;;;5106942;28;20023;-71
2023/09/18 19:23:17;;;;;;;10.23;5.32;;;;;;;;;;5113194;28;20020;-73
2023/09/18 19:26:04;;;;;;;9.50;6.10;;;;;;;;;;5094522;28;20095;-72
2023/09/18 19:28:50;;;;;;;7.15;5.40;;;;;;;;;;5093677;28;20357;-72
2023/09/18 19:31:36;;;;;;;8.73;5.60;;;;;;;;;;5093694;28;20130;-72
2023/09/18 19:34:22;;;;;;;9.23;5.45;;;;;;;;;;5094022;28;20437;-71
2023/09/18 19:37:08;;;;;;;10.23;5.38;;;;;;;;;;5105092;28;20089;-71
2023/09/18 19:39:54;;;;;;;8.20;5.43;;;;;;;;;;5089329;28;20019;-71
2023/09/18 19:42:40;;;;;;;6.25;5.18;;;;;;;;;;5099782;28;20440;-71
2023/09/18 19:45:26;;;;;;;8.82;5.50;;;;;;;;;;5111186;28;20035;-72
2023/09/18 19:48:11;;;;;;;10.70;5.80;;;;;;;;;;5093961;28;20016;-70
2023/09/18 19:50:59;;;;;;;7.45;5.30;;;;;;;;;;5093220;28;20404;-71
2023/09/18 19:53:44;;;;;;;9.35;5.50;;;;;;;;;;5092725;28;20040;-71
2023/09/18 19:56:30;;;;;;;6.45;5.15;;;;;;;;;;5103483;28;20020;-72
2023/09/18 19:59:16;;;;;;;8.20;5.35;;;;;;;;;;5115336;28;20024;-72
2023/09/18 20:02:05;;;;;;;6.13;5.13;;;;;;;;;;5113299;28;20016;-72
2023/09/18 20:04:51;;;;;;;9.48;5.80;;;;;;;;;;5115246;28;20078;-71
2023/09/18 20:07:37;;;;;;;7.95;5.18;;;;;;;;;;5113640;28;20437;-71
2023/09/18 20:10:23;;;;;;;7.15;4.72;;;;;;;;;;5113538;28;20082;-71
2023/09/18 20:13:10;;;;;;;8.00;5.55;;;;;;;;;;5099939;28;20546;-72
2023/09/18 20:15:57;;;;;;;8.65;5.47;;;;;;;;;;5112989;28;20024;-72
2023/09/18 20:18:43;;;;;;;6.10;4.95;;;;;;;;;;5113604;28;20019;-71
2023/09/18 20:21:29;;;;;;;7.03;5.03;;;;;;;;;;5113172;28;20023;-74
2023/09/18 20:24:15;;;;;;;7.75;5.30;;;;;;;;;;5099037;28;20085;-70
2023/09/18 20:27:00;;;;;;;12.15;4.95;;;;;;;;;;5113494;28;20095;-74
2023/09/18 20:29:46;;;;;;;9.48;5.68;;;;;;;;;;5097936;28;20410;-75
2023/09/18 20:32:33;;;;;;;7.88;5.60;;;;;;;;;;5096106;28;20056;-77
2023/09/18 20:35:18;;;;;;;8.50;4.78;;;;;;;;;;5094276;28;20365;-76
2023/09/18 20:38:04;;;;;;;6.78;5.03;;;;;;;;;;5095584;28;20048;-75
2023/09/18 20:40:50;;;;;;;9.07;5.30;;;;;;;;;;5080375;28;20126;-75
2023/09/18 20:43:40;;;;;;;8.43;5.35;;;;;;;;;;5108903;28;20397;-74
2023/09/18 20:46:27;;;;;;;10.65;5.75;;;;;;;;;;5087724;28;20012;-73
2023/09/18 20:49:13;;;;;;;7.13;5.30;;;;;;;;;;5089750;28;20074;-74
2023/09/18 20:51:58;;;;;;;9.77;5.43;;;;;;;;;;5103387;28;20047;-74
2023/09/18 20:54:44;;;;;;;9.07;5.25;;;;;;;;;;5089257;28;20031;-76
2023/09/18 20:57:30;;;;;;;7.78;5.28;;;;;;;;;;5110411;28;20028;-76
2023/09/18 21:00:17;;;;;;;10.43;5.93;;;;;;;;;;5090074;28;20020;-75
2023/09/18 21:03:02;;;;;;;6.30;5.10;;;;;;;;;;5101066;28;20043;-77
2023/09/18 21:05:54;;;;;;;8.00;5.55;;;;;;;;;;5086038;28;20456;-76
2023/09/18 21:08:40;;;;;;;10.95;5.60;;;;;;;;;;5099099;28;20020;-75
2023/09/18 21:11:27;;;;;;;7.47;5.40;;;;;;;;;;5099550;28;20016;-78
2023/09/18 21:14:13;;;;;;;8.43;5.32;;;;;;;;;;5098008;28;20457;-77
2023/09/18 21:16:58;;;;;;;9.57;5.50;;;;;;;;;;5097346;28;20409;-78
2023/09/18 21:19:44;;;;;;;8.55;5.50;;;;;;;;;;5082821;28;20092;-75
2023/09/18 21:22:32;;;;;;;9.60;5.70;;;;;;;;;;5097113;28;20020;-76
2023/09/18 21:25:17;;;;;;;10.88;5.20;;;;;;;;;;5097721;28;20020;-76
2023/09/18 21:28:03;;;;;;;6.35;5.45;;;;;;;;;;5102547;28;20012;-77
2023/09/18 21:30:49;;;;;;;7.90;5.35;;;;;;;;;;5102241;28;20488;-76
2023/09/18 21:33:36;;;;;;;8.20;5.50;;;;;;;;;;5118332;28;20084;-77
2023/09/18 21:36:24;;;;;;;9.23;6.00;;;;;;;;;;5118260;28;20028;-76
2023/09/18 21:39:10;;;;;;;7.40;5.20;;;;;;;;;;5117591;28;20020;-76
2023/09/18 21:41:55;;;;;;;6.93;5.20;;;;;;;;;;5101463;28;20509;-76
2023/09/18 21:44:41;;;;;;;8.00;6.00;;;;;;;;;;5117981;28;20390;-77
2023/09/18 21:47:26;;;;;;;7.13;5.60;;;;;;;;;;5117421;28;20024;-77
2023/09/18 21:50:12;;;;;;;9.15;5.63;;;;;;;;;;5117172;28;20340;-76
2023/09/18 21:52:58;;;;;;;8.23;5.78;;;;;;;;;;5117112;28;20016;-78
2023/09/18 21:55:44;;;;;;;12.30;5.70;;;;;;;;;;5103122;28;20119;-75
2023/09/18 21:58:29;;;;;;;7.43;5.72;;;;;;;;;;5116990;28;20027;-76
2023/09/18 22:01:15;;;;;;;9.75;5.75;;;;;;;;;;5116704;28;20015;-77
2023/09/18 22:04:04;;;;;;;8.73;6.10;;;;;;;;;;5116793;28;20020;-77
2023/09/18 22:06:50;;;;;;;7.35;5.53;;;;;;;;;;5117360;28;20016;-76
2023/09/18 22:09:36;;;;;;;7.75;5.65;;;;;;;;;;5117458;28;20098;-77
2023/09/18 22:12:24;;;;;;;8.25;5.60;;;;;;;;;;5103654;28;20080;-78
2023/09/18 22:15:10;;;;;;;8.25;5.65;;;;;;;;;;5103415;28;20032;-77
2023/09/18 22:17:56;;;;;;;7.93;5.72;;;;;;;;;;5117627;28;20040;-77
2023/09/18 22:20:42;;;;;;;8.43;6.03;;;;;;;;;;5102970;28;20156;-77
2023/09/18 22:23:28;;;;;;;6.25;5.28;;;;;;;;;;5116729;28;20373;-78
2023/09/18 22:26:13;;;;;;;8.77;5.57;;;;;;;;;;5116688;28;20060;-77
2023/09/18 22:28:59;;;;;;;7.88;5.40;;;;;;;;;;5103297;28;20020;-77
2023/09/18 22:31:48;;;;;;;8.82;5.57;;;;;;;;;;5101345;28;20376;-78
2023/09/18 22:34:34;;;;;;;5.70;5.10;;;;;;;;;;5114855;28;20031;-76
2023/09/18 22:37:20;;;;;;;9.20;5.68;;;;;;;;;;5116938;28;20326;-77
2023/09/18 22:40:12;;;;;;;9.43;5.55;;;;;;;;;;5116983;28;20030;-77
2023/09/18 22:43:17;;;;;;;8.68;5.53;;;;;;;;;;5100979;28;20459;-77
2023/09/18 22:46:22;;;;;;;9.00;5.57;;;;;;;;;;5101486;28;20015;-78
2023/09/18 22:49:26;;;;;;;10.02;5.68;;;;;;;;;;5116315;28;20424;-78
2023/09/18 22:52:30;;;;;;;8.77;5.60;;;;;;;;;;5116159;28;20019;-78
2023/09/18 22:55:17;;;;;;;8.68;5.65;;;;;;;;;;5101668;28;20326;-78
2023/09/18 22:58:03;;;;;;;7.03;5.53;;;;;;;;;;5115843;28;20030;-78
2023/09/18 23:00:49;;;;;;;9.98;5.65;;;;;;;;;;5100496;28;20028;-76
2023/09/18 23:03:36;;;;;;;8.75;5.50;;;;;;;;;;5116173;28;20023;-78
2023/09/18 23:06:26;;;;;;;8.60;5.75;;;;;;;;;;5115160;28;20089;-79
2023/09/18 23:09:14;;;;;;;8.50;5.93;;;;;;;;;;5115232;28;20019;-77
2023/09/18 23:11:59;;;;;;;8.18;5.40;;;;;;;;;;5100175;28;20087;-77
2023/09/18 23:14:46;;;;;;;6.43;5.30;;;;;;;;;;5100578;28;20479;-77
2023/09/18 23:17:31;;;;;;;8.80;5.43;;;;;;;;;;5115309;28;20027;-78
2023/09/18 23:20:19;;;;;;;7.25;5.53;;;;;;;;;;5100842;28;20043;-77
2023/09/18 23:23:06;;;;;;;6.93;5.43;;;;;;;;;;5115931;28;20024;-77
2023/09/18 23:25:55;;;;;;;8.98;5.82;;;;;;;;;;5119885;28;20026;-75
2023/09/18 23:28:45;;;;;;;5.82;5.22;;;;;;;;;;5119631;28;20016;-76
2023/09/18 23:31:30;;;;;;;7.78;5.50;;;;;;;;;;5101282;28;20108;-76
2023/09/18 23:34:16;;;;;;;6.88;5.15;;;;;;;;;;5115302;28;20035;-77